createdAt,value
2022-12-05T00:00:00.154Z,0.00
2022-12-05T00:20:01.546Z,0.00
2022-12-05T00:30:00.441Z,0.00
2022-12-05T00:40:01.057Z,0.00
2022-12-05T00:50:00.322Z,0.00
2022-12-05T01:00:01.292Z,0.00
2022-12-05T01:10:01.301Z,0.00
2022-12-05T01:20:01.322Z,0.00
2022-12-05T01:30:01.235Z,0.00
2022-12-05T01:40:00.822Z,0.00
2022-12-05T01:50:01.237Z,0.00
2022-12-05T02:00:02.151Z,0.00
2022-12-05T02:10:01.186Z,0.00
2022-12-05T02:20:01.221Z,0.00
2022-12-05T02:30:00.960Z,0.00
2022-12-05T02:40:01.196Z,0.00
2022-12-05T02:50:01.237Z,0.00
2022-12-05T03:00:01.272Z,0.00
2022-12-05T03:10:01.522Z,0.00
2022-12-05T03:20:01.536Z,0.00
2022-12-05T03:30:02.042Z,0.00
2022-12-05T03:40:01.303Z,0.00
2022-12-05T03:50:01.562Z,0.00
2022-12-05T04:00:01.543Z,0.00
2022-12-05T04:10:01.319Z,0.00
2022-12-05T04:20:01.919Z,0.00
2022-12-05T04:30:01.557Z,0.00
2022-12-05T04:40:01.551Z,0.00
2022-12-05T04:50:02.885Z,0.00
2022-12-05T05:00:01.262Z,0.00
2022-12-05T05:10:02.073Z,0.00
2022-12-05T05:20:01.493Z,0.00
2022-12-05T05:30:00.310Z,0.00
2022-12-05T05:40:01.365Z,0.00
2022-12-05T05:50:03.862Z,0.00
2022-12-05T06:00:01.584Z,0.00
2022-12-05T06:10:04.493Z,0.00
2022-12-05T06:20:01.233Z,0.00
2022-12-05T06:30:01.660Z,0.34
2022-12-05T06:40:02.101Z,1.58
2022-12-05T06:50:01.412Z,5.21
2022-12-05T07:00:00.371Z,5.00
2022-12-05T07:10:01.017Z,18.33
2022-12-05T07:20:01.269Z,46.67
2022-12-05T07:30:01.467Z,89.58
2022-12-05T07:40:01.489Z,88.33
2022-12-05T07:50:00.410Z,98.33
2022-12-05T08:00:01.324Z,136.67
2022-12-05T08:10:01.117Z,180.00
2022-12-05T08:20:01.245Z,170.00
2022-12-05T08:30:01.230Z,482.50
2022-12-05T08:40:01.035Z,203.33
2022-12-05T08:50:01.267Z,590.83
2022-12-05T09:00:01.345Z,231.67
2022-12-05T09:10:01.177Z,178.33
2022-12-05T09:20:01.267Z,250.00
2022-12-05T09:30:01.544Z,430.83
2022-12-05T09:40:01.022Z,253.33
2022-12-05T09:50:01.524Z,248.33
2022-12-05T10:00:00.997Z,255.00
2022-12-05T10:10:01.219Z,191.67
2022-12-05T10:20:02.539Z,258.33
2022-12-05T10:30:01.320Z,191.67
2022-12-05T10:40:01.261Z,310.00
2022-12-05T10:50:01.573Z,715.42
2022-12-05T11:00:00.994Z,250.00
2022-12-05T11:10:01.675Z,278.33
2022-12-05T11:20:01.046Z,501.67
2022-12-05T11:30:01.003Z,848.33
2022-12-05T11:40:01.252Z,380.00
2022-12-05T11:50:01.284Z,695.42
2022-12-05T12:00:01.316Z,363.33
2022-12-05T12:10:04.623Z,458.33
2022-12-05T12:20:01.255Z,427.08
2022-12-05T12:30:01.016Z,201.67
2022-12-05T12:40:01.268Z,327.92
2022-12-05T12:50:01.008Z,173.33
2022-12-05T13:00:01.117Z,253.33
2022-12-05T13:10:01.235Z,248.33
2022-12-05T13:20:01.285Z,485.00
2022-12-05T13:30:01.291Z,303.33
2022-12-05T13:40:01.493Z,201.67
2022-12-05T13:50:01.254Z,125.00
2022-12-05T14:00:01.714Z,93.33
2022-12-05T14:10:01.580Z,70.00
2022-12-05T14:20:01.483Z,107.08
2022-12-05T14:30:01.228Z,36.67
2022-12-05T14:50:01.342Z,8.33
2022-12-05T15:00:01.558Z,13.24
2022-12-05T15:10:01.586Z,4.98
2022-12-05T15:20:01.304Z,1.02
2022-12-05T15:30:01.206Z,0.11
2022-12-05T15:40:01.072Z,0.00
2022-12-05T15:50:01.094Z,0.00
2022-12-05T16:00:02.260Z,0.00
2022-12-05T16:10:01.381Z,0.00
2022-12-05T16:20:01.393Z,0.00
2022-12-05T16:30:01.038Z,0.00
2022-12-05T16:40:01.284Z,0.00
2022-12-05T16:50:00.145Z,0.00
2022-12-05T17:00:01.118Z,0.00
2022-12-05T17:10:01.503Z,0.00
2022-12-05T17:20:00.157Z,0.00
2022-12-05T17:30:02.005Z,0.00
2022-12-05T17:40:03.437Z,0.00
2022-12-05T17:50:00.412Z,0.00
2022-12-05T18:00:03.687Z,0.00
2022-12-05T18:10:01.027Z,0.00
2022-12-05T18:20:01.268Z,0.00
2022-12-05T18:30:01.836Z,0.00
2022-12-05T18:40:01.031Z,0.00
2022-12-05T18:50:02.836Z,0.00
2022-12-05T19:00:02.447Z,0.00
2022-12-05T19:10:01.499Z,0.00
2022-12-05T19:20:01.055Z,0.00
2022-12-05T19:30:05.146Z,0.00
2022-12-05T19:40:01.299Z,0.00
2022-12-05T19:50:01.284Z,0.00
2022-12-05T20:00:01.868Z,0.00
2022-12-05T20:10:01.356Z,0.00
2022-12-05T20:20:01.265Z,0.00
2022-12-05T20:30:01.600Z,0.00
2022-12-05T20:40:01.521Z,0.00
2022-12-05T20:50:01.522Z,0.00
2022-12-05T21:00:01.365Z,0.00
2022-12-05T21:10:06.519Z,0.00
2022-12-05T21:20:01.669Z,0.00
2022-12-05T21:30:03.714Z,0.00
2022-12-05T21:40:01.364Z,0.00
2022-12-05T21:50:00.386Z,0.00
2022-12-05T22:00:01.688Z,0.00
2022-12-05T22:10:03.313Z,0.00
2022-12-05T22:20:01.617Z,0.00
2022-12-05T22:30:01.468Z,0.00
2022-12-05T22:40:01.939Z,0.00
2022-12-05T22:50:00.384Z,0.00
2022-12-05T23:00:01.552Z,0.00
2022-12-05T23:10:01.623Z,0.00
2022-12-05T23:20:01.679Z,0.00
2022-12-05T23:30:01.459Z,0.00
2022-12-05T23:40:01.288Z,0.00
2022-12-05T23:50:01.326Z,0.00
